sensor_id;sensor_type;location;lat;lon;timestamp;P1;durP1;ratioP1;P2;durP2;ratioP2
65373;SDS011;52070;53.760;9.678;2023-04-06T00:00:24;11.48;;;6.10;;
65373;SDS011;52070;53.760;9.678;2023-04-06T00:02:53;9.93;;;6.15;;
65373;SDS011;52070;53.760;9.678;2023-04-06T00:05:20;11.77;;;6.13;;
65373;SDS011;52070;53.760;9.678;2023-04-06T00:07:48;9.85;;;5.75;;
65373;SDS011;52070;53.760;9.678;2023-04-06T00:10:15;8.93;;;6.05;;
65373;SDS011;52070;53.760;9.678;2023-04-06T00:12:42;10.80;;;5.93;;
65373;SDS011;52070;53.760;9.678;2023-04-06T00:15:10;11.63;;;5.95;;
65373;SDS011;52070;53.760;9.678;2023-04-06T00:17:37;10.98;;;5.85;;
65373;SDS011;52070;53.760;9.678;2023-04-06T00:20:06;8.95;;;5.70;;
65373;SDS011;52070;53.760;9.678;2023-04-06T00:22:33;8.93;;;5.72;;
65373;SDS011;52070;53.760;9.678;2023-04-06T00:25:01;12.15;;;5.65;;
65373;SDS011;52070;53.760;9.678;2023-04-06T00:27:27;13.27;;;5.85;;
65373;SDS011;52070;53.760;9.678;2023-04-06T00:29:55;12.57;;;6.35;;
65373;SDS011;52070;53.760;9.678;2023-04-06T00:32:22;12.88;;;6.05;;
65373;SDS011;52070;53.760;9.678;2023-04-06T00:34:49;9.75;;;5.50;;
65373;SDS011;52070;53.760;9.678;2023-04-06T00:37:17;11.55;;;5.75;;
65373;SDS011;52070;53.760;9.678;2023-04-06T00:39:44;9.80;;;5.78;;
65373;SDS011;52070;53.760;9.678;2023-04-06T00:42:12;7.95;;;5.45;;
65373;SDS011;52070;53.760;9.678;2023-04-06T00:44:39;7.28;;;5.20;;
65373;SDS011;52070;53.760;9.678;2023-04-06T00:47:07;10.05;;;5.60;;
65373;SDS011;52070;53.760;9.678;2023-04-06T00:49:34;11.63;;;5.82;;
65373;SDS011;52070;53.760;9.678;2023-04-06T00:52:01;11.90;;;5.65;;
65373;SDS011;52070;53.760;9.678;2023-04-06T00:54:30;10.65;;;5.82;;
65373;SDS011;52070;53.760;9.678;2023-04-06T00:56:57;11.48;;;6.03;;
65373;SDS011;52070;53.760;9.678;2023-04-06T00:59:24;10.82;;;6.28;;
65373;SDS011;52070;53.760;9.678;2023-04-06T01:01:51;8.85;;;5.45;;
65373;SDS011;52070;53.760;9.678;2023-04-06T01:04:18;10.65;;;5.80;;
65373;SDS011;52070;53.760;9.678;2023-04-06T01:06:47;10.80;;;5.93;;
65373;SDS011;52070;53.760;9.678;2023-04-06T01:09:14;10.27;;;6.30;;
65373;SDS011;52070;53.760;9.678;2023-04-06T01:11:43;10.73;;;5.57;;
65373;SDS011;52070;53.760;9.678;2023-04-06T01:14:10;10.10;;;5.95;;
65373;SDS011;52070;53.760;9.678;2023-04-06T01:16:37;9.85;;;6.00;;
65373;SDS011;52070;53.760;9.678;2023-04-06T01:19:07;9.30;;;6.07;;
65373;SDS011;52070;53.760;9.678;2023-04-06T01:21:34;8.82;;;5.80;;
65373;SDS011;52070;53.760;9.678;2023-04-06T01:24:03;9.80;;;6.00;;
65373;SDS011;52070;53.760;9.678;2023-04-06T01:26:31;8.55;;;5.40;;
65373;SDS011;52070;53.760;9.678;2023-04-06T01:28:58;9.93;;;5.65;;
65373;SDS011;52070;53.760;9.678;2023-04-06T01:31:25;9.23;;;5.93;;
65373;SDS011;52070;53.760;9.678;2023-04-06T01:33:53;11.00;;;6.05;;
65373;SDS011;52070;53.760;9.678;2023-04-06T01:36:20;9.45;;;6.13;;
65373;SDS011;52070;53.760;9.678;2023-04-06T01:38:47;9.10;;;6.07;;
65373;SDS011;52070;53.760;9.678;2023-04-06T01:41:15;8.30;;;5.22;;
65373;SDS011;52070;53.760;9.678;2023-04-06T01:43:42;11.23;;;5.60;;
65373;SDS011;52070;53.760;9.678;2023-04-06T01:46:10;9.70;;;5.45;;
65373;SDS011;52070;53.760;9.678;2023-04-06T01:48:37;11.23;;;6.47;;
65373;SDS011;52070;53.760;9.678;2023-04-06T01:51:04;11.27;;;6.35;;
65373;SDS011;52070;53.760;9.678;2023-04-06T01:53:30;8.57;;;5.93;;
65373;SDS011;52070;53.760;9.678;2023-04-06T01:55:57;11.05;;;5.97;;
65373;SDS011;52070;53.760;9.678;2023-04-06T01:58:26;10.23;;;6.07;;
65373;SDS011;52070;53.760;9.678;2023-04-06T02:00:53;9.52;;;6.00;;
65373;SDS011;52070;53.760;9.678;2023-04-06T02:03:20;9.60;;;5.82;;
65373;SDS011;52070;53.760;9.678;2023-04-06T02:05:47;10.93;;;6.32;;
65373;SDS011;52070;53.760;9.678;2023-04-06T02:08:14;10.85;;;6.22;;
65373;SDS011;52070;53.760;9.678;2023-04-06T02:10:40;9.20;;;5.65;;
65373;SDS011;52070;53.760;9.678;2023-04-06T02:13:07;11.85;;;6.13;;
65373;SDS011;52070;53.760;9.678;2023-04-06T02:15:36;14.07;;;6.25;;
65373;SDS011;52070;53.760;9.678;2023-04-06T02:18:03;12.15;;;6.47;;
65373;SDS011;52070;53.760;9.678;2023-04-06T02:20:30;14.32;;;6.18;;
65373;SDS011;52070;53.760;9.678;2023-04-06T02:22:58;9.23;;;5.85;;
65373;SDS011;52070;53.760;9.678;2023-04-06T02:25:25;10.82;;;5.93;;
65373;SDS011;52070;53.760;9.678;2023-04-06T02:27:52;11.85;;;6.57;;
65373;SDS011;52070;53.760;9.678;2023-04-06T02:30:19;10.77;;;5.72;;
65373;SDS011;52070;53.760;9.678;2023-04-06T02:32:47;10.85;;;5.95;;
65373;SDS011;52070;53.760;9.678;2023-04-06T02:35:14;11.65;;;6.25;;
65373;SDS011;52070;53.760;9.678;2023-04-06T02:37:41;13.75;;;6.07;;
65373;SDS011;52070;53.760;9.678;2023-04-06T02:40:08;9.77;;;5.85;;
65373;SDS011;52070;53.760;9.678;2023-04-06T02:42:36;13.88;;;6.43;;
65373;SDS011;52070;53.760;9.678;2023-04-06T02:45:03;16.67;;;6.63;;
65373;SDS011;52070;53.760;9.678;2023-04-06T02:47:31;12.13;;;6.28;;
65373;SDS011;52070;53.760;9.678;2023-04-06T02:50:00;9.98;;;5.40;;
65373;SDS011;52070;53.760;9.678;2023-04-06T02:52:27;11.50;;;5.70;;
65373;SDS011;52070;53.760;9.678;2023-04-06T02:54:54;11.50;;;6.00;;
65373;SDS011;52070;53.760;9.678;2023-04-06T02:57:21;11.88;;;5.90;;
65373;SDS011;52070;53.760;9.678;2023-04-06T02:59:48;11.07;;;5.85;;
65373;SDS011;52070;53.760;9.678;2023-04-06T03:02:14;14.02;;;5.85;;
65373;SDS011;52070;53.760;9.678;2023-04-06T03:04:41;11.27;;;5.60;;
65373;SDS011;52070;53.760;9.678;2023-04-06T03:07:10;10.00;;;5.65;;
65373;SDS011;52070;53.760;9.678;2023-04-06T03:09:37;11.35;;;5.43;;
65373;SDS011;52070;53.760;9.678;2023-04-06T03:12:04;10.10;;;5.65;;
65373;SDS011;52070;53.760;9.678;2023-04-06T03:14:31;11.88;;;5.85;;
65373;SDS011;52070;53.760;9.678;2023-04-06T03:16:58;9.68;;;5.68;;
65373;SDS011;52070;53.760;9.678;2023-04-06T03:19:25;12.18;;;5.60;;
65373;SDS011;52070;53.760;9.678;2023-04-06T03:21:52;10.38;;;5.68;;
65373;SDS011;52070;53.760;9.678;2023-04-06T03:24:21;11.27;;;5.65;;
65373;SDS011;52070;53.760;9.678;2023-04-06T03:26:48;12.20;;;5.90;;
65373;SDS011;52070;53.760;9.678;2023-04-06T03:29:15;9.48;;;5.93;;
65373;SDS011;52070;53.760;9.678;2023-04-06T03:31:42;9.13;;;5.40;;
65373;SDS011;52070;53.760;9.678;2023-04-06T03:34:08;11.90;;;5.63;;
65373;SDS011;52070;53.760;9.678;2023-04-06T03:36:35;13.88;;;5.93;;
65373;SDS011;52070;53.760;9.678;2023-04-06T03:39:02;10.90;;;5.70;;
65373;SDS011;52070;53.760;9.678;2023-04-06T03:41:31;8.48;;;5.30;;
65373;SDS011;52070;53.760;9.678;2023-04-06T03:43:58;8.93;;;5.10;;
65373;SDS011;52070;53.760;9.678;2023-04-06T03:46:25;10.50;;;5.55;;
65373;SDS011;52070;53.760;9.678;2023-04-06T03:48:52;12.35;;;5.88;;
65373;SDS011;52070;53.760;9.678;2023-04-06T03:51:19;9.32;;;5.53;;
65373;SDS011;52070;53.760;9.678;2023-04-06T03:53:46;10.32;;;5.18;;
65373;SDS011;52070;53.760;9.678;2023-04-06T03:56:13;9.75;;;5.03;;
65373;SDS011;52070;53.760;9.678;2023-04-06T03:58:41;13.07;;;6.13;;
65373;SDS011;52070;53.760;9.678;2023-04-06T04:01:10;12.10;;;5.32;;
65373;SDS011;52070;53.760;9.678;2023-04-06T04:03:37;11.65;;;5.38;;
65373;SDS011;52070;53.760;9.678;2023-04-06T04:06:03;9.02;;;5.13;;
65373;SDS011;52070;53.760;9.678;2023-04-06T04:08:31;10.45;;;5.45;;
65373;SDS011;52070;53.760;9.678;2023-04-06T04:10:58;9.05;;;5.40;;
65373;SDS011;52070;53.760;9.678;2023-04-06T04:13:25;10.93;;;5.35;;
65373;SDS011;52070;53.760;9.678;2023-04-06T04:15:53;11.30;;;5.97;;
65373;SDS011;52070;53.760;9.678;2023-04-06T04:18:20;9.75;;;5.70;;
65373;SDS011;52070;53.760;9.678;2023-04-06T04:20:47;8.57;;;5.30;;
65373;SDS011;52070;53.760;9.678;2023-04-06T04:23:14;10.48;;;5.75;;
65373;SDS011;52070;53.760;9.678;2023-04-06T04:25:43;11.10;;;5.85;;
65373;SDS011;52070;53.760;9.678;2023-04-06T04:28:10;11.10;;;5.43;;
65373;SDS011;52070;53.760;9.678;2023-04-06T04:30:37;7.82;;;5.03;;
65373;SDS011;52070;53.760;9.678;2023-04-06T04:33:05;11.23;;;5.75;;
65373;SDS011;52070;53.760;9.678;2023-04-06T04:35:32;10.00;;;5.43;;
65373;SDS011;52070;53.760;9.678;2023-04-06T04:37:59;10.95;;;5.07;;
65373;SDS011;52070;53.760;9.678;2023-04-06T04:40:26;9.75;;;5.63;;
65373;SDS011;52070;53.760;9.678;2023-04-06T04:42:52;9.40;;;5.47;;
65373;SDS011;52070;53.760;9.678;2023-04-06T04:45:19;15.05;;;6.05;;
65373;SDS011;52070;53.760;9.678;2023-04-06T04:47:46;10.38;;;5.72;;
65373;SDS011;52070;53.760;9.678;2023-04-06T04:50:15;12.45;;;6.00;;
65373;SDS011;52070;53.760;9.678;2023-04-06T04:52:42;13.05;;;5.68;;
65373;SDS011;52070;53.760;9.678;2023-04-06T04:55:08;11.93;;;6.18;;
65373;SDS011;52070;53.760;9.678;2023-04-06T04:57:35;14.20;;;6.43;;
65373;SDS011;52070;53.760;9.678;2023-04-06T05:00:02;11.55;;;6.25;;
65373;SDS011;52070;53.760;9.678;2023-04-06T05:02:30;15.77;;;6.65;;
65373;SDS011;52070;53.760;9.678;2023-04-06T05:04:57;11.95;;;6.00;;
65373;SDS011;52070;53.760;9.678;2023-04-06T05:07:25;13.82;;;6.50;;
65373;SDS011;52070;53.760;9.678;2023-04-06T05:09:53;17.45;;;7.25;;
65373;SDS011;52070;53.760;9.678;2023-04-06T05:12:20;15.77;;;6.97;;
65373;SDS011;52070;53.760;9.678;2023-04-06T05:14:47;15.10;;;6.93;;
65373;SDS011;52070;53.760;9.678;2023-04-06T05:17:14;16.13;;;7.43;;
65373;SDS011;52070;53.760;9.678;2023-04-06T05:19:41;12.80;;;6.85;;
65373;SDS011;52070;53.760;9.678;2023-04-06T05:22:08;15.57;;;7.30;;
65373;SDS011;52070;53.760;9.678;2023-04-06T05:24:36;13.93;;;7.30;;
65373;SDS011;52070;53.760;9.678;2023-04-06T05:27:04;14.13;;;7.53;;
65373;SDS011;52070;53.760;9.678;2023-04-06T05:29:31;13.70;;;8.00;;
65373;SDS011;52070;53.760;9.678;2023-04-06T05:31:58;17.05;;;7.47;;
65373;SDS011;52070;53.760;9.678;2023-04-06T05:34:25;16.42;;;7.70;;
65373;SDS011;52070;53.760;9.678;2023-04-06T05:36:53;12.50;;;7.40;;
65373;SDS011;52070;53.760;9.678;2023-04-06T05:39:19;18.73;;;7.80;;
65373;SDS011;52070;53.760;9.678;2023-04-06T05:41:48;16.98;;;7.43;;
65373;SDS011;52070;53.760;9.678;2023-04-06T05:44:15;12.98;;;7.32;;
65373;SDS011;52070;53.760;9.678;2023-04-06T05:46:42;13.18;;;7.63;;
65373;SDS011;52070;53.760;9.678;2023-04-06T05:49:09;16.33;;;7.45;;
65373;SDS011;52070;53.760;9.678;2023-04-06T05:51:36;18.48;;;7.88;;
65373;SDS011;52070;53.760;9.678;2023-04-06T05:54:03;10.98;;;7.10;;
65373;SDS011;52070;53.760;9.678;2023-04-06T05:56:30;14.40;;;7.60;;
65373;SDS011;52070;53.760;9.678;2023-04-06T05:58:58;15.40;;;7.63;;
65373;SDS011;52070;53.760;9.678;2023-04-06T06:01:25;12.85;;;7.55;;
65373;SDS011;52070;53.760;9.678;2023-04-06T06:03:52;17.70;;;7.97;;
65373;SDS011;52070;53.760;9.678;2023-04-06T06:06:19;14.65;;;7.95;;
65373;SDS011;52070;53.760;9.678;2023-04-06T06:08:46;15.75;;;7.60;;
65373;SDS011;52070;53.760;9.678;2023-04-06T06:11:13;15.88;;;7.78;;
65373;SDS011;52070;53.760;9.678;2023-04-06T06:13:40;17.38;;;8.20;;
65373;SDS011;52070;53.760;9.678;2023-04-06T06:16:08;18.63;;;8.13;;
65373;SDS011;52070;53.760;9.678;2023-04-06T06:18:35;16.73;;;8.48;;
65373;SDS011;52070;53.760;9.678;2023-04-06T06:21:03;16.85;;;7.82;;
65373;SDS011;52070;53.760;9.678;2023-04-06T06:23:30;14.20;;;8.13;;
65373;SDS011;52070;53.760;9.678;2023-04-06T06:25:57;12.50;;;8.10;;
65373;SDS011;52070;53.760;9.678;2023-04-06T06:28:24;12.98;;;7.82;;
65373;SDS011;52070;53.760;9.678;2023-04-06T06:30:51;12.40;;;7.88;;
65373;SDS011;52070;53.760;9.678;2023-04-06T06:33:19;19.95;;;8.30;;
65373;SDS011;52070;53.760;9.678;2023-04-06T06:35:46;16.00;;;8.40;;
65373;SDS011;52070;53.760;9.678;2023-04-06T06:38:13;14.88;;;7.95;;
65373;SDS011;52070;53.760;9.678;2023-04-06T06:40:41;14.55;;;8.45;;
65373;SDS011;52070;53.760;9.678;2023-04-06T06:43:08;12.93;;;7.65;;
65373;SDS011;52070;53.760;9.678;2023-04-06T06:45:35;17.65;;;7.82;;
65373;SDS011;52070;53.760;9.678;2023-04-06T06:48:01;16.38;;;7.88;;
65373;SDS011;52070;53.760;9.678;2023-04-06T06:50:30;15.65;;;8.48;;
65373;SDS011;52070;53.760;9.678;2023-04-06T06:52:57;15.18;;;8.27;;
65373;SDS011;52070;53.760;9.678;2023-04-06T06:55:24;20.10;;;8.18;;
65373;SDS011;52070;53.760;9.678;2023-04-06T06:57:52;10.75;;;7.10;;
65373;SDS011;52070;53.760;9.678;2023-04-06T07:00:19;16.35;;;8.05;;
65373;SDS011;52070;53.760;9.678;2023-04-06T07:02:47;12.35;;;8.27;;
65373;SDS011;52070;53.760;9.678;2023-04-06T07:05:14;13.70;;;7.47;;
65373;SDS011;52070;53.760;9.678;2023-04-06T07:07:43;17.38;;;8.15;;
65373;SDS011;52070;53.760;9.678;2023-04-06T07:10:10;13.82;;;8.32;;
65373;SDS011;52070;53.760;9.678;2023-04-06T07:12:37;13.80;;;7.88;;
65373;SDS011;52070;53.760;9.678;2023-04-06T07:15:04;13.43;;;7.90;;
65373;SDS011;52070;53.760;9.678;2023-04-06T07:17:32;15.73;;;7.72;;
65373;SDS011;52070;53.760;9.678;2023-04-06T07:19:59;14.63;;;7.78;;
65373;SDS011;52070;53.760;9.678;2023-04-06T07:22:26;14.10;;;7.93;;
65373;SDS011;52070;53.760;9.678;2023-04-06T07:24:54;11.85;;;7.53;;
65373;SDS011;52070;53.760;9.678;2023-04-06T07:27:21;12.27;;;7.57;;
65373;SDS011;52070;53.760;9.678;2023-04-06T07:29:48;14.35;;;7.00;;
65373;SDS011;52070;53.760;9.678;2023-04-06T07:32:15;13.20;;;6.72;;
65373;SDS011;52070;53.760;9.678;2023-04-06T07:34:42;11.52;;;6.90;;
65373;SDS011;52070;53.760;9.678;2023-04-06T07:37:10;17.10;;;6.85;;
65373;SDS011;52070;53.760;9.678;2023-04-06T07:39:37;15.60;;;6.70;;
65373;SDS011;52070;53.760;9.678;2023-04-06T07:42:05;13.88;;;6.78;;
65373;SDS011;52070;53.760;9.678;2023-04-06T07:44:32;12.05;;;6.10;;
65373;SDS011;52070;53.760;9.678;2023-04-06T07:46:59;14.38;;;6.03;;
65373;SDS011;52070;53.760;9.678;2023-04-06T07:49:26;11.13;;;6.10;;
65373;SDS011;52070;53.760;9.678;2023-04-06T07:51:53;9.07;;;5.30;;
65373;SDS011;52070;53.760;9.678;2023-04-06T07:54:20;12.48;;;5.22;;
65373;SDS011;52070;53.760;9.678;2023-04-06T07:56:47;11.43;;;5.07;;
65373;SDS011;52070;53.760;9.678;2023-04-06T07:59:16;9.38;;;5.13;;
65373;SDS011;52070;53.760;9.678;2023-04-06T08:01:43;13.10;;;5.07;;
65373;SDS011;52070;53.760;9.678;2023-04-06T08:04:09;9.25;;;4.53;;
65373;SDS011;52070;53.760;9.678;2023-04-06T08:06:36;7.97;;;5.05;;
65373;SDS011;52070;53.760;9.678;2023-04-06T08:09:03;9.98;;;4.53;;
65373;SDS011;52070;53.760;9.678;2023-04-06T08:11:30;8.60;;;4.43;;
65373;SDS011;52070;53.760;9.678;2023-04-06T08:13:57;12.80;;;4.43;;
65373;SDS011;52070;53.760;9.678;2023-04-06T08:16:26;7.55;;;4.53;;
65373;SDS011;52070;53.760;9.678;2023-04-06T08:18:52;8.75;;;4.63;;
65373;SDS011;52070;53.760;9.678;2023-04-06T08:21:19;6.60;;;4.10;;
65373;SDS011;52070;53.760;9.678;2023-04-06T08:23:46;6.82;;;4.45;;
65373;SDS011;52070;53.760;9.678;2023-04-06T08:26:13;8.60;;;4.20;;
65373;SDS011;52070;53.760;9.678;2023-04-06T08:28:40;7.55;;;4.47;;
65373;SDS011;52070;53.760;9.678;2023-04-06T08:31:07;8.07;;;4.82;;
65373;SDS011;52070;53.760;9.678;2023-04-06T08:33:35;6.78;;;4.18;;
65373;SDS011;52070;53.760;9.678;2023-04-06T08:36:10;8.25;;;4.03;;
65373;SDS011;52070;53.760;9.678;2023-04-06T08:38:38;12.38;;;4.10;;
65373;SDS011;52070;53.760;9.678;2023-04-06T08:41:09;8.63;;;3.97;;
65373;SDS011;52070;53.760;9.678;2023-04-06T08:43:38;7.80;;;3.97;;
65373;SDS011;52070;53.760;9.678;2023-04-06T08:46:09;6.45;;;3.88;;
65373;SDS011;52070;53.760;9.678;2023-04-06T08:48:39;8.90;;;3.63;;
65373;SDS011;52070;53.760;9.678;2023-04-06T08:51:07;8.45;;;3.25;;
65373;SDS011;52070;53.760;9.678;2023-04-06T08:53:34;8.07;;;3.38;;
65373;SDS011;52070;53.760;9.678;2023-04-06T08:56:02;9.02;;;3.50;;
65373;SDS011;52070;53.760;9.678;2023-04-06T08:58:32;7.32;;;3.22;;
65373;SDS011;52070;53.760;9.678;2023-04-06T09:01:00;5.80;;;3.05;;
65373;SDS011;52070;53.760;9.678;2023-04-06T09:03:32;6.47;;;3.58;;
65373;SDS011;52070;53.760;9.678;2023-04-06T09:06:02;10.77;;;3.67;;
65373;SDS011;52070;53.760;9.678;2023-04-06T09:08:30;7.35;;;3.50;;
65373;SDS011;52070;53.760;9.678;2023-04-06T09:10:57;5.38;;;3.55;;
65373;SDS011;52070;53.760;9.678;2023-04-06T09:13:24;4.95;;;3.00;;
65373;SDS011;52070;53.760;9.678;2023-04-06T09:15:58;7.40;;;3.40;;
65373;SDS011;52070;53.760;9.678;2023-04-06T09:18:28;7.03;;;3.55;;
65373;SDS011;52070;53.760;9.678;2023-04-06T09:23:25;6.25;;;3.28;;
65373;SDS011;52070;53.760;9.678;2023-04-06T09:25:52;5.78;;;3.10;;
65373;SDS011;52070;53.760;9.678;2023-04-06T09:28:40;8.77;;;3.60;;
65373;SDS011;52070;53.760;9.678;2023-04-06T09:31:08;8.38;;;3.40;;
65373;SDS011;52070;53.760;9.678;2023-04-06T09:33:36;6.10;;;3.38;;
65373;SDS011;52070;53.760;9.678;2023-04-06T09:36:04;8.30;;;3.80;;
65373;SDS011;52070;53.760;9.678;2023-04-06T09:38:33;6.82;;;3.38;;
65373;SDS011;52070;53.760;9.678;2023-04-06T09:41:00;6.60;;;3.75;;
65373;SDS011;52070;53.760;9.678;2023-04-06T09:43:27;8.80;;;3.83;;
65373;SDS011;52070;53.760;9.678;2023-04-06T09:45:55;7.72;;;3.55;;
65373;SDS011;52070;53.760;9.678;2023-04-06T09:48:22;4.93;;;3.30;;
65373;SDS011;52070;53.760;9.678;2023-04-06T09:50:52;6.90;;;3.40;;
65373;SDS011;52070;53.760;9.678;2023-04-06T09:53:23;7.97;;;3.58;;
65373;SDS011;52070;53.760;9.678;2023-04-06T09:55:55;7.20;;;3.75;;
65373;SDS011;52070;53.760;9.678;2023-04-06T09:58:27;6.43;;;3.75;;
65373;SDS011;52070;53.760;9.678;2023-04-06T10:01:01;5.97;;;3.65;;
65373;SDS011;52070;53.760;9.678;2023-04-06T10:03:34;6.07;;;3.90;;
65373;SDS011;52070;53.760;9.678;2023-04-06T10:06:11;7.57;;;3.70;;
65373;SDS011;52070;53.760;9.678;2023-04-06T10:08:41;8.90;;;3.22;;
65373;SDS011;52070;53.760;9.678;2023-04-06T10:11:11;9.32;;;3.50;;
65373;SDS011;52070;53.760;9.678;2023-04-06T10:13:38;6.10;;;3.83;;
65373;SDS011;52070;53.760;9.678;2023-04-06T10:16:06;6.20;;;3.50;;
65373;SDS011;52070;53.760;9.678;2023-04-06T10:18:34;7.00;;;3.80;;
65373;SDS011;52070;53.760;9.678;2023-04-06T10:21:02;6.10;;;3.60;;
65373;SDS011;52070;53.760;9.678;2023-04-06T10:23:33;7.00;;;3.67;;
65373;SDS011;52070;53.760;9.678;2023-04-06T10:26:02;6.97;;;3.80;;
65373;SDS011;52070;53.760;9.678;2023-04-06T10:28:31;8.07;;;3.45;;
65373;SDS011;52070;53.760;9.678;2023-04-06T10:31:02;6.65;;;3.80;;
65373;SDS011;52070;53.760;9.678;2023-04-06T10:33:31;7.72;;;3.72;;
65373;SDS011;52070;53.760;9.678;2023-04-06T10:36:08;7.20;;;3.38;;
65373;SDS011;52070;53.760;9.678;2023-04-06T10:38:36;6.57;;;3.60;;
65373;SDS011;52070;53.760;9.678;2023-04-06T10:41:05;8.63;;;3.90;;
65373;SDS011;52070;53.760;9.678;2023-04-06T10:43:34;6.20;;;3.92;;
65373;SDS011;52070;53.760;9.678;2023-04-06T10:46:02;8.88;;;3.58;;
65373;SDS011;52070;53.760;9.678;2023-04-06T10:48:36;7.10;;;3.53;;
65373;SDS011;52070;53.760;9.678;2023-04-06T10:51:07;5.88;;;3.60;;
65373;SDS011;52070;53.760;9.678;2023-04-06T10:53:35;6.47;;;3.75;;
65373;SDS011;52070;53.760;9.678;2023-04-06T10:56:02;5.18;;;3.53;;
65373;SDS011;52070;53.760;9.678;2023-04-06T10:58:30;6.07;;;3.85;;
65373;SDS011;52070;53.760;9.678;2023-04-06T11:00:58;5.15;;;3.35;;
65373;SDS011;52070;53.760;9.678;2023-04-06T11:03:26;7.03;;;4.03;;
65373;SDS011;52070;53.760;9.678;2023-04-06T11:05:53;6.40;;;4.00;;
65373;SDS011;52070;53.760;9.678;2023-04-06T11:08:24;8.18;;;4.30;;
65373;SDS011;52070;53.760;9.678;2023-04-06T11:10:52;8.60;;;4.32;;
65373;SDS011;52070;53.760;9.678;2023-04-06T11:13:19;5.85;;;3.63;;
65373;SDS011;52070;53.760;9.678;2023-04-06T11:15:45;6.35;;;4.10;;
65373;SDS011;52070;53.760;9.678;2023-04-06T11:18:18;6.55;;;4.10;;
65373;SDS011;52070;53.760;9.678;2023-04-06T11:20:47;6.65;;;4.18;;
65373;SDS011;52070;53.760;9.678;2023-04-06T11:23:21;6.13;;;4.10;;
65373;SDS011;52070;53.760;9.678;2023-04-06T11:25:50;6.05;;;3.72;;
65373;SDS011;52070;53.760;9.678;2023-04-06T11:28:17;8.48;;;4.40;;
65373;SDS011;52070;53.760;9.678;2023-04-06T11:30:44;6.03;;;4.30;;
65373;SDS011;52070;53.760;9.678;2023-04-06T11:33:19;7.82;;;4.05;;
65373;SDS011;52070;53.760;9.678;2023-04-06T11:35:48;8.55;;;4.00;;
65373;SDS011;52070;53.760;9.678;2023-04-06T11:38:15;5.60;;;4.20;;
65373;SDS011;52070;53.760;9.678;2023-04-06T11:40:45;7.10;;;4.20;;
65373;SDS011;52070;53.760;9.678;2023-04-06T11:43:12;8.55;;;4.40;;
65373;SDS011;52070;53.760;9.678;2023-04-06T11:45:39;7.38;;;4.72;;
65373;SDS011;52070;53.760;9.678;2023-04-06T11:48:17;8.63;;;4.72;;
65373;SDS011;52070;53.760;9.678;2023-04-06T11:50:47;7.95;;;5.10;;
65373;SDS011;52070;53.760;9.678;2023-04-06T11:53:14;7.93;;;4.50;;
65373;SDS011;52070;53.760;9.678;2023-04-06T11:55:41;7.32;;;4.63;;
65373;SDS011;52070;53.760;9.678;2023-04-06T11:58:10;7.80;;;5.20;;
65373;SDS011;52070;53.760;9.678;2023-04-06T12:00:37;10.73;;;4.97;;
65373;SDS011;52070;53.760;9.678;2023-04-06T12:03:04;9.77;;;5.30;;
65373;SDS011;52070;53.760;9.678;2023-04-06T12:05:32;6.85;;;4.72;;
65373;SDS011;52070;53.760;9.678;2023-04-06T12:08:01;11.25;;;5.40;;
65373;SDS011;52070;53.760;9.678;2023-04-06T12:10:29;10.83;;;5.70;;
65373;SDS011;52070;53.760;9.678;2023-04-06T12:12:56;11.45;;;5.32;;
65373;SDS011;52070;53.760;9.678;2023-04-06T12:15:23;8.43;;;4.95;;
65373;SDS011;52070;53.760;9.678;2023-04-06T12:17:50;8.65;;;4.80;;
65373;SDS011;52070;53.760;9.678;2023-04-06T12:20:17;7.40;;;5.13;;
65373;SDS011;52070;53.760;9.678;2023-04-06T12:22:44;8.80;;;5.65;;
65373;SDS011;52070;53.760;9.678;2023-04-06T12:25:12;10.93;;;5.57;;
65373;SDS011;52070;53.760;9.678;2023-04-06T12:27:39;8.70;;;5.38;;
65373;SDS011;52070;53.760;9.678;2023-04-06T12:30:06;7.47;;;5.15;;
65373;SDS011;52070;53.760;9.678;2023-04-06T12:32:34;8.30;;;5.40;;
65373;SDS011;52070;53.760;9.678;2023-04-06T12:35:01;11.32;;;5.65;;
65373;SDS011;52070;53.760;9.678;2023-04-06T12:37:28;9.73;;;5.18;;
65373;SDS011;52070;53.760;9.678;2023-04-06T12:39:55;7.70;;;5.32;;
65373;SDS011;52070;53.760;9.678;2023-04-06T12:42:24;11.48;;;5.68;;
65373;SDS011;52070;53.760;9.678;2023-04-06T12:44:51;9.90;;;5.47;;
65373;SDS011;52070;53.760;9.678;2023-04-06T12:47:17;8.25;;;5.82;;
65373;SDS011;52070;53.760;9.678;2023-04-06T12:49:44;10.13;;;6.00;;
65373;SDS011;52070;53.760;9.678;2023-04-06T12:52:11;9.10;;;5.85;;
65373;SDS011;52070;53.760;9.678;2023-04-06T12:54:38;10.25;;;6.07;;
65373;SDS011;52070;53.760;9.678;2023-04-06T12:57:05;10.00;;;5.82;;
65373;SDS011;52070;53.760;9.678;2023-04-06T12:59:34;11.98;;;7.30;;
65373;SDS011;52070;53.760;9.678;2023-04-06T13:02:03;10.50;;;6.05;;
65373;SDS011;52070;53.760;9.678;2023-04-06T13:04:30;9.93;;;5.85;;
65373;SDS011;52070;53.760;9.678;2023-04-06T13:06:57;10.55;;;6.32;;
65373;SDS011;52070;53.760;9.678;2023-04-06T13:09:24;9.30;;;6.60;;
65373;SDS011;52070;53.760;9.678;2023-04-06T13:11:50;9.38;;;6.18;;
65373;SDS011;52070;53.760;9.678;2023-04-06T13:14:17;9.57;;;6.47;;
65373;SDS011;52070;53.760;9.678;2023-04-06T13:16:46;12.98;;;7.22;;
65373;SDS011;52070;53.760;9.678;2023-04-06T13:19:13;14.18;;;7.20;;
65373;SDS011;52070;53.760;9.678;2023-04-06T13:21:40;13.02;;;7.00;;
65373;SDS011;52070;53.760;9.678;2023-04-06T13:24:07;12.20;;;6.78;;
65373;SDS011;52070;53.760;9.678;2023-04-06T13:26:35;12.32;;;6.50;;
65373;SDS011;52070;53.760;9.678;2023-04-06T13:29:02;10.85;;;6.25;;
65373;SDS011;52070;53.760;9.678;2023-04-06T13:31:29;11.18;;;6.63;;
65373;SDS011;52070;53.760;9.678;2023-04-06T13:33:58;11.30;;;6.60;;
65373;SDS011;52070;53.760;9.678;2023-04-06T13:36:25;11.77;;;5.90;;
65373;SDS011;52070;53.760;9.678;2023-04-06T13:38:53;11.68;;;6.35;;
65373;SDS011;52070;53.760;9.678;2023-04-06T13:41:21;10.30;;;6.85;;
65373;SDS011;52070;53.760;9.678;2023-04-06T13:43:49;12.27;;;6.82;;
65373;SDS011;52070;53.760;9.678;2023-04-06T13:46:16;10.40;;;6.32;;
65373;SDS011;52070;53.760;9.678;2023-04-06T13:48:43;10.40;;;6.10;;
65373;SDS011;52070;53.760;9.678;2023-04-06T13:51:12;9.65;;;6.03;;
65373;SDS011;52070;53.760;9.678;2023-04-06T13:53:40;8.87;;;6.27;;
65373;SDS011;52070;53.760;9.678;2023-04-06T13:56:07;11.25;;;6.88;;
65373;SDS011;52070;53.760;9.678;2023-04-06T13:58:34;10.98;;;7.05;;
65373;SDS011;52070;53.760;9.678;2023-04-06T14:01:02;11.63;;;7.47;;
65373;SDS011;52070;53.760;9.678;2023-04-06T14:03:30;12.63;;;7.07;;
65373;SDS011;52070;53.760;9.678;2023-04-06T14:05:57;10.15;;;6.72;;
65373;SDS011;52070;53.760;9.678;2023-04-06T14:08:25;17.27;;;7.28;;
65373;SDS011;52070;53.760;9.678;2023-04-06T14:10:52;10.55;;;6.18;;
65373;SDS011;52070;53.760;9.678;2023-04-06T14:13:19;9.77;;;5.97;;
65373;SDS011;52070;53.760;9.678;2023-04-06T14:15:46;11.90;;;7.35;;
65373;SDS011;52070;53.760;9.678;2023-04-06T14:18:13;11.52;;;6.60;;
65373;SDS011;52070;53.760;9.678;2023-04-06T14:20:40;14.30;;;7.88;;
65373;SDS011;52070;53.760;9.678;2023-04-06T14:23:07;13.80;;;8.38;;
65373;SDS011;52070;53.760;9.678;2023-04-06T14:25:36;12.13;;;7.07;;
65373;SDS011;52070;53.760;9.678;2023-04-06T14:28:03;10.38;;;6.82;;
65373;SDS011;52070;53.760;9.678;2023-04-06T14:30:30;15.95;;;6.55;;
65373;SDS011;52070;53.760;9.678;2023-04-06T14:32:57;10.50;;;6.30;;
65373;SDS011;52070;53.760;9.678;2023-04-06T14:35:24;11.73;;;6.07;;
65373;SDS011;52070;53.760;9.678;2023-04-06T14:37:53;9.40;;;5.68;;
65373;SDS011;52070;53.760;9.678;2023-04-06T14:40:20;12.35;;;6.57;;
65373;SDS011;52070;53.760;9.678;2023-04-06T14:42:48;8.98;;;5.88;;
65373;SDS011;52070;53.760;9.678;2023-04-06T14:45:16;8.40;;;5.60;;